Time;durP1;ratioP1;P1;durP2;ratioP2;P2;SDS_P1;SDS_P2;PMS_P1;PMS_P2;Temp;Humidity;BMP_temperature;BMP_pressure;BME280_temperature;BME280_humidity;BME280_pressure;Samples;Min_cycle;Max_cycle;Signal;HPM_P1;HPM_P2
2022/09/15 00:00:36;;;;;;;3.53;1.90;;;13.40;99.90;;;;;;5047475;28;20423;-88
2022/09/15 00:03:02;;;;;;;3.17;1.77;;;13.40;99.90;;;;;;5017181;28;20037;-87
2022/09/15 00:05:27;;;;;;;2.35;1.80;;;13.40;99.90;;;;;;5034389;28;20041;-88
2022/09/15 00:07:53;;;;;;;6.75;1.58;;;13.40;99.90;;;;;;5035148;28;20483;-88
2022/09/15 00:10:19;;;;;;;5.40;1.88;;;13.50;99.90;;;;;;5035525;28;20041;-87
2022/09/15 00:12:54;;;;;;;7.90;2.35;;;13.50;99.90;;;;;;5034238;28;20045;-87
2022/09/15 00:15:24;;;;;;;3.08;1.88;;;13.60;99.90;;;;;;5034302;28;20596;-88
2022/09/15 00:17:52;;;;;;;5.43;2.05;;;13.50;99.90;;;;;;5034185;28;20085;-87
2022/09/15 00:20:21;;;;;;;3.42;1.58;;;13.50;99.90;;;;;;5033354;28;20502;-88
2022/09/15 00:22:47;;;;;;;3.97;1.65;;;13.40;99.90;;;;;;5050800;28;20045;-87
2022/09/15 00:25:14;;;;;;;3.47;1.83;;;13.40;99.90;;;;;;5034345;28;20372;-87
2022/09/15 00:27:40;;;;;;;3.47;1.50;;;13.40;99.90;;;;;;5034995;28;20103;-88
2022/09/15 00:30:07;;;;;;;4.07;2.10;;;13.40;99.90;;;;;;5034893;28;20046;-87
2022/09/15 00:32:33;;;;;;;4.13;1.80;;;13.40;99.90;;;;;;5033433;28;20073;-87
2022/09/15 00:34:59;;;;;;;3.80;1.70;;;13.40;99.90;;;;;;5034686;28;20049;-88
2022/09/15 00:37:25;;;;;;;3.30;1.92;;;13.40;99.90;;;;;;5033879;28;20127;-87
2022/09/15 00:39:52;;;;;;;7.18;2.30;;;13.40;99.90;;;;;;5035739;28;20045;-87
2022/09/15 00:42:19;;;;;;;7.40;2.50;;;13.40;99.90;;;;;;5034829;28;20049;-87
2022/09/15 00:44:45;;;;;;;8.93;3.00;;;13.30;99.90;;;;;;5033630;28;20464;-87
2022/09/15 00:47:11;;;;;;;7.55;2.80;;;13.40;99.90;;;;;;5033693;28;20124;-87
2022/09/15 00:49:39;;;;;;;3.80;2.63;;;13.30;99.90;;;;;;5033282;28;20076;-87
2022/09/15 00:52:11;;;;;;;6.85;3.22;;;13.30;99.90;;;;;;5033656;28;20395;-87
2022/09/15 00:54:36;;;;;;;5.47;2.92;;;13.40;99.90;;;;;;5034493;28;20037;-86
2022/09/15 00:57:07;;;;;;;6.97;3.22;;;13.40;99.90;;;;;;5032949;28;20038;-87
2022/09/15 00:59:36;;;;;;;8.95;3.40;;;13.30;99.90;;;;;;5016919;28;20098;-87
2022/09/15 01:02:23;;;;;;;5.78;3.30;;;13.30;99.90;;;;;;5033295;28;20418;-87
2022/09/15 01:04:51;;;;;;;9.98;3.58;;;13.30;99.90;;;;;;5034773;28;20050;-87
2022/09/15 01:07:34;;;;;;;11.32;4.20;;;13.30;99.90;;;;;;5033359;28;20132;-89
2022/09/15 01:10:06;;;;;;;11.25;4.15;;;13.30;99.90;;;;;;5033244;28;20057;-87
2022/09/15 01:12:33;;;;;;;6.15;3.22;;;13.30;99.90;;;;;;5033901;28;20042;-87
2022/09/15 01:15:02;;;;;;;5.03;3.50;;;13.20;99.90;;;;;;5033030;28;20038;-87
2022/09/15 01:17:48;;;;;;;12.50;4.15;;;13.20;99.90;;;;;;5033288;28;20045;-87
2022/09/15 01:20:43;;;;;;;7.32;4.10;;;13.20;99.90;;;;;;5022467;28;20041;-87
2022/09/15 01:23:27;;;;;;;6.53;4.05;;;13.20;99.90;;;;;;5034119;28;20052;-88
2022/09/15 01:26:17;;;;;;;8.45;3.85;;;13.20;99.90;;;;;;5033345;28;20062;-87
2022/09/15 01:29:20;;;;;;;6.75;3.45;;;13.10;99.90;;;;;;5024368;28;20509;-87
2022/09/15 01:34:46;;;;;;;7.25;3.80;;;13.00;99.90;;;;;;5032987;28;20053;-87
2022/09/15 01:37:21;;;;;;;8.88;3.60;;;13.00;99.90;;;;;;5033489;28;20051;-86
2022/09/15 01:39:51;;;;;;;9.00;3.55;;;12.90;99.90;;;;;;5033632;28;20380;-87
2022/09/15 01:42:18;;;;;;;8.48;3.35;;;12.90;99.90;;;;;;5032744;28;20520;-87
2022/09/15 01:44:50;;;;;;;8.90;3.92;;;12.80;99.90;;;;;;5032605;28;20449;-86
2022/09/15 01:47:18;;;;;;;7.68;4.10;;;12.80;99.90;;;;;;5032675;28;20049;-87
2022/09/15 01:49:54;;;;;;;8.13;3.40;;;12.70;99.90;;;;;;5015609;28;20379;-87
2022/09/15 01:52:23;;;;;;;8.32;3.25;;;12.70;99.90;;;;;;5048674;28;20124;-86
2022/09/15 01:54:56;;;;;;;8.27;4.15;;;12.60;99.90;;;;;;5033717;28;20050;-87
2022/09/15 01:57:22;;;;;;;10.35;3.53;;;12.60;99.90;;;;;;5033340;28;20076;-86
2022/09/15 01:59:53;;;;;;;7.03;3.50;;;12.60;99.90;;;;;;5033065;28;20042;-87
2022/09/15 02:02:21;;;;;;;;;;;12.60;99.90;;;;;;5032308;28;20094;-87
2022/09/15 02:04:54;;;;;;;9.98;3.70;;;12.50;99.90;;;;;;5031944;28;19928;-86
2022/09/15 02:07:43;;;;;;;9.70;3.83;;;12.50;99.90;;;;;;5033972;28;20041;-86
2022/09/15 02:10:18;;;;;;;7.97;3.90;;;12.60;99.90;;;;;;5033517;28;20085;-87
2022/09/15 02:13:07;;;;;;;11.73;3.67;;;12.60;99.90;;;;;;5031775;28;20426;-86
2022/09/15 02:15:46;;;;;;;5.45;3.10;;;12.60;99.90;;;;;;5033798;28;20437;-87
2022/09/15 02:18:18;;;;;;;7.30;3.58;;;12.70;99.90;;;;;;5032116;28;20416;-86
2022/09/15 02:20:57;;;;;;;7.07;3.42;;;12.70;99.90;;;;;;5048250;28;20053;-86
2022/09/15 02:23:31;;;;;;;5.88;3.00;;;12.80;99.90;;;;;;5033004;28;20049;-87
2022/09/15 02:26:12;;;;;;;8.20;3.15;;;12.80;99.90;;;;;;5032517;28;20053;-86
2022/09/15 02:28:41;;;;;;;8.90;3.17;;;12.80;99.90;;;;;;5031655;28;20046;-86
2022/09/15 02:31:12;;;;;;;11.05;3.20;;;12.80;99.90;;;;;;5031665;28;20042;-86
2022/09/15 02:33:47;;;;;;;5.57;3.13;;;12.80;99.90;;;;;;5047819;28;20403;-87
2022/09/15 02:36:18;;;;;;;7.25;3.70;;;12.90;99.90;;;;;;5033338;28;20037;-86
2022/09/15 02:38:48;;;;;;;7.43;3.53;;;12.90;99.90;;;;;;5032223;28;20053;-87
2022/09/15 02:41:14;;;;;;;7.60;3.00;;;13.00;99.90;;;;;;5033374;28;20495;-86
2022/09/15 02:43:45;;;;;;;5.65;3.35;;;13.00;99.90;;;;;;5031533;28;20045;-86
2022/09/15 02:46:11;;;;;;;;;;;13.00;99.90;;;;;;5032960;28;20046;-86
2022/09/15 02:48:37;;;;;;;10.45;2.53;;;13.00;99.90;;;;;;5030628;28;19944;-86
2022/09/15 02:51:02;;;;;;;6.45;2.67;;;13.00;99.90;;;;;;5048367;28;20049;-87
2022/09/15 02:53:28;;;;;;;7.18;2.35;;;13.10;99.90;;;;;;5032877;28;20065;-87
2022/09/15 02:55:54;;;;;;;7.15;2.63;;;13.10;99.90;;;;;;5048357;28;20046;-87
2022/09/15 02:58:19;;;;;;;7.97;2.40;;;13.10;99.90;;;;;;5031346;28;20049;-86
2022/09/15 03:00:45;;;;;;;8.65;2.67;;;13.20;99.90;;;;;;5031367;28;20529;-86
2022/09/15 03:03:12;;;;;;;6.88;2.20;;;13.20;99.90;;;;;;5032189;28;20045;-86
2022/09/15 03:05:38;;;;;;;8.38;2.55;;;13.20;99.90;;;;;;5032160;28;20156;-86
2022/09/15 03:08:03;;;;;;;5.55;2.35;;;13.20;99.90;;;;;;5031353;28;20061;-86
2022/09/15 03:10:31;;;;;;;6.70;2.65;;;13.20;99.90;;;;;;5032978;28;20049;-86
2022/09/15 03:12:57;;;;;;;7.28;2.20;;;13.30;99.90;;;;;;5047729;28;20140;-86
2022/09/15 03:15:25;;;;;;;6.15;2.40;;;13.30;99.90;;;;;;5031246;28;20458;-87
2022/09/15 03:17:51;;;;;;;7.80;2.10;;;13.30;99.90;;;;;;5027333;28;20045;-86
2022/09/15 03:20:20;;;;;;;6.57;2.05;;;13.30;99.90;;;;;;5031620;28;20049;-87
2022/09/15 03:22:46;;;;;;;8.32;2.13;;;13.30;99.90;;;;;;5033799;28;20164;-87
2022/09/15 03:25:12;;;;;;;6.28;1.52;;;13.40;99.90;;;;;;5034727;28;20080;-86
2022/09/15 03:27:38;;;;;;;9.82;1.98;;;13.40;99.90;;;;;;5051621;28;20077;-87
2022/09/15 03:30:05;;;;;;;7.78;1.75;;;13.40;99.90;;;;;;5035885;28;20044;-87
2022/09/15 03:32:31;;;;;;;5.32;1.77;;;13.40;99.90;;;;;;5018434;28;20128;-86
2022/09/15 03:34:57;;;;;;;4.70;1.70;;;13.40;99.90;;;;;;5035186;28;20049;-86
2022/09/15 03:37:22;;;;;;;3.72;1.50;;;13.40;99.90;;;;;;5034516;28;20105;-87
2022/09/15 03:39:48;;;;;;;5.22;1.92;;;13.40;99.90;;;;;;5051458;28;20116;-87
2022/09/15 03:42:15;;;;;;;5.55;1.60;;;13.40;99.90;;;;;;5035805;28;20049;-86
2022/09/15 03:44:41;;;;;;;7.82;1.77;;;13.40;99.90;;;;;;5035626;28;20535;-87
2022/09/15 03:47:06;;;;;;;5.93;1.95;;;13.40;99.90;;;;;;5034303;28;20120;-86
2022/09/15 03:49:32;;;;;;;6.75;1.58;;;13.40;99.90;;;;;;5035557;28;20033;-86
2022/09/15 03:51:58;;;;;;;8.88;2.20;;;13.40;99.90;;;;;;5035597;28;20057;-86
2022/09/15 03:54:25;;;;;;;6.60;1.60;;;13.40;99.90;;;;;;5035888;28;20049;-87
2022/09/15 03:56:50;;;;;;;7.00;1.50;;;13.40;99.90;;;;;;5035530;28;20431;-87
2022/09/15 03:59:17;;;;;;;6.68;1.67;;;13.40;99.90;;;;;;5017918;28;20044;-86
2022/09/15 04:01:44;;;;;;;8.82;1.58;;;13.40;99.90;;;;;;5034780;28;20391;-86
2022/09/15 04:04:10;;;;;;;9.25;2.10;;;13.40;99.90;;;;;;5033885;28;20421;-87
2022/09/15 04:06:36;;;;;;;10.07;1.73;;;13.40;99.90;;;;;;5035283;28;20048;-86
2022/09/15 04:09:02;;;;;;;10.02;1.55;;;13.40;99.90;;;;;;5034102;28;20060;-86
2022/09/15 04:11:29;;;;;;;6.45;1.50;;;13.40;99.90;;;;;;5034614;28;20399;-87
2022/09/15 04:13:55;;;;;;;6.05;1.30;;;13.40;99.90;;;;;;5034435;28;20049;-86
2022/09/15 04:16:23;;;;;;;6.78;1.40;;;13.40;99.90;;;;;;5035503;28;20037;-87
2022/09/15 04:18:54;;;;;;;6.60;1.50;;;13.50;99.90;;;;;;5050699;28;20116;-86
2022/09/15 04:21:22;;;;;;;3.30;1.17;;;13.40;99.90;;;;;;5034829;28;20088;-86
2022/09/15 04:23:48;;;;;;;5.03;1.10;;;13.40;99.90;;;;;;5035455;28;20120;-86
2022/09/15 04:26:28;;;;;;;6.43;1.42;;;13.50;99.90;;;;;;5034898;28;20472;-87
2022/09/15 04:28:54;;;;;;;7.18;1.60;;;13.40;99.90;;;;;;5034931;28;20088;-87
2022/09/15 04:31:20;;;;;;;3.30;0.80;;;13.40;99.90;;;;;;5034106;28;20107;-87
2022/09/15 04:33:46;;;;;;;6.88;1.52;;;13.40;99.90;;;;;;5033641;28;20046;-86
2022/09/15 04:36:18;;;;;;;7.22;1.23;;;13.30;99.90;;;;;;5033363;28;20048;-87
2022/09/15 04:38:44;;;;;;;8.18;1.20;;;13.30;99.90;;;;;;5033831;28;20128;-87
2022/09/15 04:41:11;;;;;;;6.72;1.10;;;13.30;99.90;;;;;;5015900;28;20049;-87
2022/09/15 04:43:37;;;;;;;4.90;1.17;;;13.40;99.90;;;;;;5050197;28;20107;-87
2022/09/15 04:46:04;;;;;;;3.22;0.70;;;13.30;99.90;;;;;;5025455;28;20100;-86
2022/09/15 04:48:33;;;;;;;5.55;0.98;;;13.30;99.90;;;;;;5015241;28;20050;-88
2022/09/15 04:51:12;;;;;;;4.50;1.02;;;13.30;99.90;;;;;;4997956;28;20108;-87
2022/09/15 04:53:38;;;;;;;4.30;1.10;;;13.30;99.90;;;;;;5015273;28;20042;-88
2022/09/15 04:56:10;;;;;;;10.63;1.55;;;13.30;99.90;;;;;;5013435;28;20087;-87
2022/09/15 04:58:45;;;;;;;4.20;1.13;;;13.30;99.90;;;;;;5014362;28;20050;-87
2022/09/15 05:01:13;;;;;;;5.72;1.10;;;13.30;99.90;;;;;;5014841;28;20085;-87
2022/09/15 05:03:39;;;;;;;5.85;1.10;;;13.30;99.90;;;;;;5014276;28;20078;-87
2022/09/15 05:06:06;;;;;;;8.40;1.27;;;13.30;99.90;;;;;;5013481;28;20516;-86
2022/09/15 05:08:32;;;;;;;7.82;1.00;;;13.30;99.90;;;;;;5021899;28;20057;-87
2022/09/15 05:11:04;;;;;;;6.28;1.27;;;13.30;99.90;;;;;;5047698;28;20402;-87
2022/09/15 05:13:30;;;;;;;7.65;1.33;;;13.30;99.90;;;;;;5030299;28;20045;-87
2022/09/15 05:16:01;;;;;;;8.63;1.27;;;13.30;99.90;;;;;;5037369;28;20048;-87
2022/09/15 05:18:27;;;;;;;4.80;0.80;;;13.30;99.90;;;;;;5031518;28;20092;-87
2022/09/15 05:21:04;;;;;;;7.47;1.10;;;13.30;99.90;;;;;;5031015;28;20441;-87
2022/09/15 05:23:31;;;;;;;7.20;1.30;;;13.30;99.90;;;;;;5029933;28;20053;-87
2022/09/15 05:26:00;;;;;;;7.90;1.20;;;13.30;99.90;;;;;;5030614;28;20137;-87
2022/09/15 05:28:25;;;;;;;7.13;1.05;;;13.30;99.90;;;;;;5029885;28;20392;-87
2022/09/15 05:30:53;;;;;;;7.00;0.95;;;13.30;99.90;;;;;;5024401;28;20056;-87
2022/09/15 05:33:22;;;;;;;5.25;1.20;;;13.30;99.90;;;;;;5004751;28;20046;-87
2022/09/15 05:35:51;;;;;;;7.30;1.30;;;13.30;99.90;;;;;;5013494;28;20092;-87
2022/09/15 05:38:17;;;;;;;4.43;1.05;;;13.40;99.90;;;;;;5013411;28;20137;-87
2022/09/15 05:40:43;;;;;;;6.55;1.00;;;13.40;99.90;;;;;;5012684;28;20109;-88
2022/09/15 05:43:08;;;;;;;5.15;1.20;;;13.30;99.90;;;;;;5013030;28;20052;-89
2022/09/15 05:45:34;;;;;;;5.85;1.02;;;13.40;99.90;;;;;;5011539;28;20056;-88
2022/09/15 05:47:59;;;;;;;7.82;1.10;;;13.40;99.90;;;;;;5013810;28;20042;-88
2022/09/15 05:50:25;;;;;;;3.92;0.85;;;13.40;99.90;;;;;;5013346;28;20049;-89
2022/09/15 05:52:54;;;;;;;7.32;1.20;;;13.50;99.90;;;;;;4996744;28;20045;-88
2022/09/15 05:55:20;;;;;;;6.18;1.30;;;13.50;99.90;;;;;;4996694;28;20054;-89
2022/09/15 05:57:45;;;;;;;6.82;1.20;;;13.50;99.90;;;;;;4980473;28;20041;-89
2022/09/15 06:00:12;;;;;;;6.95;1.30;;;13.50;99.90;;;;;;5012971;28;20096;-90
2022/09/15 06:02:37;;;;;;;8.23;1.00;;;13.50;99.90;;;;;;5028953;28;20050;-88
2022/09/15 06:05:04;;;;;;;6.53;0.90;;;13.50;99.90;;;;;;5012921;28;20053;-88
2022/09/15 06:07:30;;;;;;;9.35;1.05;;;13.50;99.90;;;;;;4996972;28;20380;-88
2022/09/15 06:09:55;;;;;;;8.38;1.30;;;13.60;99.90;;;;;;4980078;28;20060;-88
2022/09/15 06:12:21;;;;;;;7.88;1.30;;;13.60;99.90;;;;;;5012874;28;20042;-88
2022/09/15 06:14:49;;;;;;;6.00;0.93;;;13.70;99.90;;;;;;4996406;28;20061;-88
2022/09/15 06:17:19;;;;;;;6.53;1.33;;;13.70;99.90;;;;;;5013039;28;20045;-88
2022/09/15 06:19:45;;;;;;;10.75;1.52;;;13.70;99.90;;;;;;4996717;28;20054;-87
2022/09/15 06:22:11;;;;;;;9.27;1.35;;;13.70;99.90;;;;;;5029355;28;20050;-90
2022/09/15 06:24:36;;;;;;;9.77;1.27;;;13.70;99.90;;;;;;5012895;28;20061;-88
2022/09/15 06:27:02;;;;;;;9.52;1.23;;;13.80;99.90;;;;;;5012869;28;20041;-88
2022/09/15 06:29:30;;;;;;;10.30;1.25;;;13.80;99.90;;;;;;5029538;28;20042;-88
2022/09/15 06:32:01;;;;;;;11.38;1.60;;;13.90;99.90;;;;;;5029980;28;20049;-88
2022/09/15 06:34:28;;;;;;;5.70;1.15;;;14.00;99.90;;;;;;5013844;28;20050;-88
2022/09/15 06:36:54;;;;;;;5.95;1.02;;;14.10;99.90;;;;;;5012814;28;20125;-88
2022/09/15 06:39:20;;;;;;;8.73;1.35;;;14.10;99.90;;;;;;5012779;28;20125;-88
2022/09/15 06:41:46;;;;;;;8.07;1.10;;;14.10;99.90;;;;;;5013566;28;20132;-87
2022/09/15 06:44:12;;;;;;;7.80;1.05;;;14.20;99.90;;;;;;5029127;28;20046;-88
2022/09/15 06:46:37;;;;;;;6.10;1.10;;;14.30;99.90;;;;;;5012736;28;20502;-88
2022/09/15 06:49:03;;;;;;;4.43;1.15;;;14.30;99.90;;;;;;4996428;28;20095;-88
2022/09/15 06:51:34;;;;;;;8.05;1.60;;;14.40;99.90;;;;;;4996504;28;20507;-88
2022/09/15 06:54:01;;;;;;;7.93;1.42;;;14.50;99.90;;;;;;5029023;28;20045;-88
2022/09/15 06:56:28;;;;;;;7.22;1.55;;;14.50;99.90;;;;;;5012208;28;20053;-88
2022/09/15 06:58:55;;;;;;;5.43;1.27;;;14.50;99.90;;;;;;5000331;28;20061;-87
2022/09/15 07:01:21;;;;;;;9.02;1.35;;;14.60;99.90;;;;;;5017280;28;20399;-88
2022/09/15 07:03:47;;;;;;;10.85;1.20;;;14.70;99.90;;;;;;4999991;28;20056;-89
2022/09/15 07:06:13;;;;;;;6.57;1.20;;;14.80;99.90;;;;;;4999923;28;20060;-88
2022/09/15 07:08:40;;;;;;;7.97;1.40;;;14.90;99.90;;;;;;5018226;28;20143;-88
2022/09/15 07:11:07;;;;;;;4.30;1.00;;;15.00;99.90;;;;;;5017230;28;20408;-88
2022/09/15 07:13:33;;;;;;;6.07;1.40;;;15.10;99.90;;;;;;5033537;28;20053;-87
2022/09/15 07:16:02;;;;;;;5.75;1.00;;;15.20;99.90;;;;;;5016501;28;20450;-88
2022/09/15 07:18:28;;;;;;;6.18;0.85;;;15.20;99.90;;;;;;5017589;28;20496;-89
2022/09/15 07:20:59;;;;;;;5.38;1.10;;;15.30;99.90;;;;;;5017686;28;20056;-90
2022/09/15 07:23:25;;;;;;;10.35;1.38;;;15.40;99.90;;;;;;5032663;28;20042;-89
2022/09/15 07:25:51;;;;;;;7.32;1.27;;;15.30;99.90;;;;;;4983477;28;20054;-87
2022/09/15 07:28:17;;;;;;;6.80;1.13;;;15.40;99.90;;;;;;5015894;28;20136;-88
2022/09/15 07:30:43;;;;;;;3.55;0.77;;;15.40;99.90;;;;;;5017068;28;20042;-89
2022/09/15 07:33:10;;;;;;;3.35;0.85;;;15.50;99.90;;;;;;5032710;28;20046;-90
2022/09/15 07:35:41;;;;;;;11.43;1.20;;;15.50;99.90;;;;;;5033402;28;20062;-89
2022/09/15 07:38:06;;;;;;;5.33;0.90;;;15.60;99.90;;;;;;5000170;28;20052;-88
2022/09/15 07:40:32;;;;;;;11.45;1.20;;;15.70;99.90;;;;;;4999515;28;20054;-89
2022/09/15 07:42:59;;;;;;;7.47;1.20;;;15.80;99.90;;;;;;4983632;28;20455;-90
2022/09/15 07:45:24;;;;;;;9.95;1.30;;;15.90;99.90;;;;;;5032778;28;20050;-89
2022/09/15 07:47:50;;;;;;;4.90;0.93;;;16.00;99.90;;;;;;4999815;28;20049;-88
2022/09/15 07:50:16;;;;;;;6.82;1.48;;;16.10;99.90;;;;;;4983243;28;20045;-88
2022/09/15 07:52:42;;;;;;;7.05;1.08;;;16.10;99.90;;;;;;5031882;28;20042;-89
2022/09/15 07:55:08;;;;;;;9.32;1.38;;;16.20;99.90;;;;;;5015605;28;20046;-89
2022/09/15 07:57:34;;;;;;;3.83;1.10;;;16.20;99.90;;;;;;5015367;28;20054;-91
2022/09/15 08:00:01;;;;;;;8.93;1.52;;;16.30;99.90;;;;;;4999329;28;20053;-89
2022/09/15 08:02:26;;;;;;;6.63;1.15;;;16.40;99.90;;;;;;4998808;28;20038;-90
2022/09/15 08:04:52;;;;;;;9.65;1.67;;;16.50;99.90;;;;;;5015263;28;20056;-89
2022/09/15 08:07:18;;;;;;;6.22;1.92;;;16.50;99.90;;;;;;4999466;28;20452;-88
2022/09/15 08:09:43;;;;;;;10.98;2.25;;;16.50;99.90;;;;;;5014259;28;20119;-89
2022/09/15 08:12:09;;;;;;;10.48;1.80;;;16.60;99.90;;;;;;5031449;28;20080;-89
2022/09/15 08:14:35;;;;;;;10.30;2.45;;;16.60;99.90;;;;;;5031843;28;20038;-89
2022/09/15 08:17:03;;;;;;;12.88;1.98;;;16.80;99.90;;;;;;5032327;28;20041;-89
2022/09/15 08:19:33;;;;;;;7.88;1.80;;;16.80;99.90;;;;;;5015933;28;20038;-91
2022/09/15 08:22:00;;;;;;;9.13;1.83;;;17.00;99.90;;;;;;4999365;28;20054;-89
2022/09/15 08:24:26;;;;;;;7.38;1.40;;;17.00;99.90;;;;;;5031907;28;20058;-91
2022/09/15 08:26:52;;;;;;;4.35;0.80;;;17.00;99.90;;;;;;5016289;28;20053;-89
2022/09/15 08:29:18;;;;;;;9.20;1.25;;;17.00;99.90;;;;;;5015180;28;20484;-91
2022/09/15 08:31:47;;;;;;;6.03;1.02;;;17.00;99.90;;;;;;5015133;28;20053;-91
2022/09/15 08:34:14;;;;;;;9.00;1.30;;;17.10;99.90;;;;;;5014628;28;20045;-89
2022/09/15 08:36:40;;;;;;;7.28;1.15;;;17.40;99.90;;;;;;5031488;28;20093;-91
2022/09/15 08:39:06;;;;;;;7.88;1.35;;;17.60;99.90;;;;;;5015064;28;20053;-89
2022/09/15 08:41:44;;;;;;;7.90;1.05;;;17.70;99.90;;;;;;5032233;28;20050;-90
2022/09/15 08:44:19;;;;;;;8.20;1.00;;;17.80;99.90;;;;;;5016840;28;20053;-87
2022/09/15 08:46:53;;;;;;;6.45;1.05;;;17.90;99.90;;;;;;5020690;28;20068;-89
2022/09/15 08:49:32;;;;;;;9.00;1.02;;;18.00;99.90;;;;;;5000829;28;20128;-89
2022/09/15 08:52:05;;;;;;;4.70;0.68;;;17.90;99.90;;;;;;5034649;28;20057;-87
2022/09/15 08:54:32;;;;;;;5.78;0.82;;;18.10;99.90;;;;;;5016534;28;20132;-88
2022/09/15 08:57:01;;;;;;;3.72;0.93;;;18.00;99.90;;;;;;4998566;28;20041;-89
2022/09/15 08:59:33;;;;;;;4.90;0.70;;;18.10;99.90;;;;;;5001148;28;20054;-89
2022/09/15 09:02:11;;;;;;;5.53;0.80;;;18.10;99.90;;;;;;5032290;28;20049;-89
2022/09/15 09:04:55;;;;;;;4.97;0.70;;;18.10;99.90;;;;;;4998436;28;20147;-90
2022/09/15 09:07:45;;;;;;;5.28;1.05;;;18.20;99.90;;;;;;5031057;28;20049;-88
2022/09/15 09:10:15;;;;;;;6.50;0.90;;;18.20;99.90;;;;;;5015811;28;20073;-93
2022/09/15 09:12:56;;;;;;;7.82;1.10;;;18.20;99.90;;;;;;5031868;28;20144;-87
2022/09/15 09:16:04;;;;;;;6.22;1.00;;;18.20;99.90;;;;;;5030826;28;20384;-89
2022/09/15 09:18:45;;;;;;;6.10;1.02;;;18.30;99.90;;;;;;5015076;28;20050;-87
2022/09/15 09:21:11;;;;;;;9.27;1.08;;;18.50;99.90;;;;;;5015227;28;20054;-90
2022/09/15 09:23:47;;;;;;;8.82;1.27;;;18.80;99.90;;;;;;5033117;28;20053;-88
2022/09/15 09:26:14;;;;;;;5.20;0.73;;;18.90;99.90;;;;;;5032834;28;20051;-89
2022/09/15 09:29:15;;;;;;;5.20;0.88;;;19.30;99.90;;;;;;4982477;28;20099;-90
2022/09/15 09:31:44;;;;;;;7.28;1.00;;;20.00;99.90;;;;;;4979680;28;20093;-92
2022/09/15 09:34:25;;;;;;;5.15;0.80;;;20.60;98.50;;;;;;5030673;28;20057;-89
2022/09/15 09:36:56;;;;;;;2.83;0.80;;;20.60;97.00;;;;;;5013940;28;20085;-89
2022/09/15 09:39:21;;;;;;;4.90;0.80;;;20.50;98.10;;;;;;5014868;28;20505;-89
2022/09/15 09:41:48;;;;;;;4.88;0.90;;;20.50;95.60;;;;;;5030313;28;20126;-89
2022/09/15 09:44:14;;;;;;;8.85;1.00;;;20.50;95.60;;;;;;4997458;28;20049;-90
2022/09/15 09:46:40;;;;;;;31.52;1.50;;;20.20;96.80;;;;;;4998573;28;20050;-87
2022/09/15 09:49:23;;;;;;;4.68;0.80;;;20.00;96.40;;;;;;5022941;28;20049;-87
2022/09/15 09:51:54;;;;;;;3.90;0.73;;;19.70;93.10;;;;;;5013767;28;20052;-88
2022/09/15 09:54:27;;;;;;;4.53;0.88;;;19.50;99.90;;;;;;5023943;28;20093;-89
2022/09/15 09:56:55;;;;;;;5.28;0.95;;;19.50;99.90;;;;;;5030743;28;20053;-88
2022/09/15 09:59:41;;;;;;;4.15;0.70;;;19.40;99.90;;;;;;5014782;28;20108;-93
2022/09/15 10:02:09;;;;;;;5.30;0.90;;;19.50;99.90;;;;;;5029775;28;20046;-89
2022/09/15 10:04:39;;;;;;;6.90;0.90;;;19.60;99.90;;;;;;5029809;28;20045;-91
2022/09/15 10:07:06;;;;;;;8.15;0.80;;;19.70;99.90;;;;;;4997738;28;20045;-87
2022/09/15 10:09:32;;;;;;;5.32;0.73;;;19.80;95.00;;;;;;5012872;28;20050;-86
2022/09/15 10:12:00;;;;;;;2.60;0.68;;;19.60;93.70;;;;;;5030155;28;20092;-91
2022/09/15 10:14:35;;;;;;;4.68;0.73;;;19.40;89.00;;;;;;4997913;28;20451;-92
2022/09/15 10:17:07;;;;;;;3.25;0.68;;;19.30;86.90;;;;;;5029692;28;20057;-93
2022/09/15 10:19:53;;;;;;;5.25;0.60;;;19.50;91.30;;;;;;4998118;28;20046;-94
2022/09/15 10:22:30;;;;;;;3.67;0.80;;;19.50;86.60;;;;;;5030203;28;20046;-88
2022/09/15 10:24:57;;;;;;;4.88;0.70;;;19.40;91.00;;;;;;5016651;28;20042;-91
2022/09/15 10:27:31;;;;;;;4.68;0.70;;;19.60;92.90;;;;;;4980949;28;20056;-92
2022/09/15 10:30:13;;;;;;;5.75;0.70;;;19.70;90.20;;;;;;4997602;28;20038;-91
2022/09/15 10:32:40;;;;;;;4.63;0.50;;;19.70;94.10;;;;;;4997098;28;20513;-92
2022/09/15 10:35:12;;;;;;;5.38;0.80;;;19.60;94.30;;;;;;5031070;28;20045;-87
2022/09/15 10:37:47;;;;;;;3.75;0.43;;;19.50;93.20;;;;;;4997870;28;20050;-94
2022/09/15 10:40:25;;;;;;;4.88;0.55;;;19.40;93.80;;;;;;4997977;28;20506;-90
2022/09/15 10:42:53;;;;;;;2.63;0.60;;;19.40;80.90;;;;;;4996873;28;20053;-93
2022/09/15 10:45:37;;;;;;;3.35;0.50;;;19.50;86.80;;;;;;4997302;28;20050;-90
2022/09/15 10:48:28;;;;;;;4.68;0.60;;;19.90;76.80;;;;;;4996600;28;20124;-92
2022/09/15 10:51:49;;;;;;;5.50;1.25;;;20.10;73.70;;;;;;5030203;28;20406;-87
2022/09/15 10:54:30;;;;;;;3.83;0.80;;;20.00;71.70;;;;;;4992664;28;20156;-91
2022/09/15 10:57:25;;;;;;;2.60;0.50;;;19.90;81.40;;;;;;4976069;28;20108;-90
2022/09/15 11:00:04;;;;;;;3.50;0.63;;;20.00;85.60;;;;;;4979256;28;20057;-93
2022/09/15 11:02:48;;;;;;;4.10;0.73;;;20.10;75.70;;;;;;4997006;28;20053;-91
2022/09/15 11:05:26;;;;;;;2.78;0.43;;;20.20;75.80;;;;;;5014123;28;20133;-93
2022/09/15 11:07:53;;;;;;;2.03;0.57;;;20.10;72.00;;;;;;4996643;28;20451;-92
2022/09/15 11:10:34;;;;;;;4.43;0.70;;;19.90;74.90;;;;;;4996554;28;20500;-91
2022/09/15 11:13:17;;;;;;;6.72;0.75;;;19.70;70.40;;;;;;4996331;28;20518;-91
2022/09/15 11:15:49;;;;;;;4.97;0.60;;;19.60;73.60;;;;;;5013227;28;20057;-90
2022/09/15 11:18:26;;;;;;;2.20;0.60;;;20.20;82.00;;;;;;4996631;28;20054;-93
2022/09/15 11:21:07;;;;;;;2.95;0.50;;;21.20;73.50;;;;;;4997978;28;20053;-92
2022/09/15 11:24:31;;;;;;;2.90;0.60;;;22.00;68.60;;;;;;4996529;28;20046;-92
2022/09/15 11:27:22;;;;;;;4.68;0.93;;;22.90;65.40;;;;;;4976747;28;20073;-87
2022/09/15 11:29:54;;;;;;;6.13;0.80;;;23.40;62.20;;;;;;4995531;28;20120;-91
2022/09/15 11:32:45;;;;;;;4.47;0.60;;;23.40;63.70;;;;;;4997114;28;20059;-89
2022/09/15 11:35:30;;;;;;;;;;;23.70;62.40;;;;;;5029985;28;20050;-93
2022/09/15 11:38:26;;;;;;;6.55;1.10;;;23.00;60.80;;;;;;5013287;28;19921;-89
2022/09/15 11:41:10;;;;;;;5.28;0.90;;;22.00;65.40;;;;;;5002456;28;20107;-86
2022/09/15 11:43:49;;;;;;;6.40;0.75;;;21.40;69.10;;;;;;4996143;28;20045;-86
2022/09/15 11:46:22;;;;;;;6.30;1.10;;;20.80;70.80;;;;;;5016519;28;20050;-88
2022/09/15 11:49:07;;;;;;;4.28;0.90;;;20.20;75.20;;;;;;5017167;28;20056;-87
2022/09/15 11:51:40;;;;;;;5.75;0.90;;;19.70;73.10;;;;;;4999720;28;20144;-86
2022/09/15 11:54:22;;;;;;;5.57;0.80;;;19.30;76.10;;;;;;5032228;28;20407;-88
2022/09/15 11:56:50;;;;;;;4.30;0.60;;;19.10;80.70;;;;;;4999275;28;20489;-91
2022/09/15 11:59:28;;;;;;;5.05;0.70;;;19.00;88.80;;;;;;5032727;28;20116;-87
2022/09/15 12:02:14;;;;;;;2.33;0.65;;;19.10;90.30;;;;;;4998914;28;20045;-89
2022/09/15 12:04:58;;;;;;;2.67;0.57;;;19.60;89.90;;;;;;5016451;28;20053;-87
2022/09/15 12:07:29;;;;;;;6.63;1.00;;;20.00;84.50;;;;;;5031676;28;20053;-87
2022/09/15 12:10:12;;;;;;;3.28;0.65;;;20.20;79.00;;;;;;5015274;28;20144;-87
2022/09/15 12:12:42;;;;;;;6.10;0.90;;;20.30;73.30;;;;;;5017117;28;20062;-87
2022/09/15 12:15:15;;;;;;;5.72;0.60;;;20.20;72.20;;;;;;4999917;28;20048;-88
2022/09/15 12:18:03;;;;;;;3.25;0.75;;;20.10;73.60;;;;;;5035406;28;20062;-93
2022/09/15 12:20:55;;;;;;;4.57;0.82;;;19.90;70.00;;;;;;5033889;28;20057;-87
2022/09/15 12:23:41;;;;;;;5.25;0.90;;;19.60;72.70;;;;;;5034848;28;20050;-87
2022/09/15 12:26:16;;;;;;;3.40;0.50;;;19.40;73.90;;;;;;5017253;28;20061;-90
2022/09/15 12:28:45;;;;;;;4.75;1.02;;;19.40;78.70;;;;;;5016078;28;20046;-85
2022/09/15 12:31:36;;;;;;;3.83;0.40;;;19.40;76.60;;;;;;5016761;28;20062;-86
2022/09/15 12:34:23;;;;;;;2.28;0.65;;;19.30;77.20;;;;;;4998915;28;20454;-90
2022/09/15 12:36:53;;;;;;;3.05;0.60;;;19.10;77.90;;;;;;4999189;28;20050;-86
2022/09/15 12:39:21;;;;;;;18.15;1.15;;;18.90;88.50;;;;;;5017825;28;20165;-86
2022/09/15 12:42:17;;;;;;;5.38;1.10;;;18.70;90.50;;;;;;5033957;28;20100;-85
2022/09/15 12:45:26;;;;;;;3.05;0.60;;;18.50;97.80;;;;;;5027123;28;20066;-85
2022/09/15 12:48:12;;;;;;;8.10;0.98;;;18.20;99.90;;;;;;5025717;28;20053;-86
2022/09/15 12:50:40;;;;;;;3.65;0.63;;;17.80;99.90;;;;;;5030951;28;20133;-87
2022/09/15 12:53:29;;;;;;;5.70;0.65;;;17.50;99.90;;;;;;5014248;28;20495;-88
2022/09/15 12:55:59;;;;;;;2.80;0.47;;;17.40;99.90;;;;;;5015127;28;20132;-90
2022/09/15 12:58:35;;;;;;;3.95;0.55;;;17.60;99.90;;;;;;5031318;28;20054;-87
2022/09/15 13:01:23;;;;;;;2.13;0.60;;;17.60;99.90;;;;;;5031130;28;20042;-88
2022/09/15 13:03:48;;;;;;;2.72;0.50;;;17.90;99.90;;;;;;5030629;28;20089;-86
2022/09/15 13:06:20;;;;;;;3.10;0.55;;;18.20;99.90;;;;;;5031461;28;20089;-89
2022/09/15 13:08:50;;;;;;;3.88;0.60;;;18.30;99.90;;;;;;4997853;28;20392;-88
2022/09/15 13:11:25;;;;;;;5.50;1.05;;;18.50;99.90;;;;;;4998276;28;20049;-86
2022/09/15 13:14:06;;;;;;;2.38;0.52;;;18.70;99.90;;;;;;4997570;28;20065;-88